Terminal Aerodrome Forecast
Issued by NWS La Crosse, WI

Home | Current Version | Previous Version | Text Only | Print | Product List | Glossary On
Versions: 1 2 3 4 5 6 7 8 9 10 11 12 13 14 15 16 17 18 19 20 21 22 23
000
FTUS43 KARX 302321
TAFRST
TAF
KRST 302321Z 3100/3124 17008KT P6SM SCT100
     FM310200 16007KT P6SM VCTS SCT060CB BKN100
     FM310800 17008KT P6SM BKN060
     FM311500 17011G20KT P6SM VCTS SCT040CB BKN080
     FM311800 18017G25KT 5SM TSRA BR BKN035CB=

USA.gov is the U.S. government's official web portal to all federal, state and local government web resources and services.